Time;durP1;ratioP1;P1;durP2;ratioP2;P2;SDS_P1;SDS_P2;PMS_P1;PMS_P2;Temp;Humidity;BMP_temperature;BMP_pressure;BME280_temperature;BME280_humidity;BME280_pressure;Samples;Min_cycle;Max_cycle;Signal;HPM_P1;HPM_P2
2021/09/04 00:00:38;;;;;;;9.68;6.65;;;15.10;99.90;;;;;;5076623;28;20020;-69
2021/09/04 00:03:04;;;;;;;5.82;5.25;;;15.10;99.90;;;;;;5076558;28;20020;-69
2021/09/04 00:05:30;;;;;;;8.95;5.85;;;15.00;99.90;;;;;;5076429;28;20020;-69
2021/09/04 00:07:56;;;;;;;8.52;5.50;;;15.10;99.90;;;;;;5076410;28;20031;-70
2021/09/04 00:10:23;;;;;;;7.03;5.15;;;15.10;99.90;;;;;;5075744;28;20108;-69
2021/09/04 00:12:49;;;;;;;5.88;5.28;;;15.20;99.90;;;;;;5076210;28;20035;-70
2021/09/04 00:15:15;;;;;;;6.22;5.30;;;15.10;99.90;;;;;;5076026;28;20104;-69
2021/09/04 00:17:41;;;;;;;6.40;5.80;;;15.30;99.90;;;;;;5076311;28;20113;-70
2021/09/04 00:20:08;;;;;;;5.63;5.13;;;15.10;99.90;;;;;;5076294;28;20476;-69
2021/09/04 00:22:34;;;;;;;7.60;6.30;;;15.30;99.90;;;;;;5079613;28;20051;-69
2021/09/04 00:25:00;;;;;;;5.47;5.00;;;15.40;99.90;;;;;;5080010;28;20396;-69
2021/09/04 00:27:26;;;;;;;5.88;5.28;;;15.50;99.90;;;;;;5080221;28;20394;-70
2021/09/04 00:29:51;;;;;;;6.53;5.22;;;15.20;99.90;;;;;;5080114;28;20508;-69
2021/09/04 00:32:17;;;;;;;6.68;5.93;;;15.20;99.90;;;;;;5080141;28;20074;-69
2021/09/04 00:34:43;;;;;;;10.82;6.20;;;15.40;99.90;;;;;;5080198;28;20071;-69
2021/09/04 00:37:09;;;;;;;8.25;6.88;;;15.50;99.90;;;;;;5080165;28;20071;-69
2021/09/04 00:39:35;;;;;;;8.15;7.35;;;15.40;99.90;;;;;;5078397;28;20040;-70
2021/09/04 00:42:01;;;;;;;13.85;9.05;;;15.60;99.90;;;;;;5080116;28;20365;-70
2021/09/04 00:44:27;;;;;;;21.88;14.48;;;15.40;99.90;;;;;;5080049;28;20017;-70
2021/09/04 00:47:04;;;;;;;18.30;11.82;;;15.30;99.90;;;;;;5080008;28;20112;-70
2021/09/04 00:49:31;;;;;;;12.93;10.75;;;15.50;99.90;;;;;;5080022;28;20060;-69
2021/09/04 00:51:57;;;;;;;10.50;9.18;;;15.50;99.90;;;;;;5079782;28;20033;-69
2021/09/04 00:54:23;;;;;;;12.93;11.57;;;15.80;99.90;;;;;;5079737;28;20017;-69
2021/09/04 00:56:49;;;;;;;14.75;12.35;;;15.60;99.90;;;;;;5079440;28;20580;-69
2021/09/04 00:59:16;;;;;;;13.15;10.50;;;15.60;99.90;;;;;;5079862;28;20044;-69
2021/09/04 01:01:42;;;;;;;14.55;11.95;;;15.50;99.90;;;;;;5079570;28;20107;-69
2021/09/04 01:04:08;;;;;;;13.10;10.27;;;16.00;99.90;;;;;;5079962;28;20055;-69
2021/09/04 01:06:35;;;;;;;11.32;8.93;;;16.00;99.90;;;;;;5078259;28;20017;-69
2021/09/04 01:09:01;;;;;;;9.20;7.93;;;15.80;99.90;;;;;;5079563;28;20031;-70
2021/09/04 01:11:27;;;;;;;10.05;8.77;;;16.00;99.90;;;;;;5078083;28;20077;-69
2021/09/04 01:13:53;;;;;;;8.77;7.88;;;15.90;99.90;;;;;;5079532;28;20095;-69
2021/09/04 01:16:18;;;;;;;12.85;10.85;;;15.90;99.90;;;;;;5079531;28;20048;-69
2021/09/04 01:18:44;;;;;;;10.80;9.05;;;15.90;99.90;;;;;;5079405;28;20514;-70
2021/09/04 01:21:11;;;;;;;10.23;7.65;;;16.00;99.90;;;;;;5079427;28;20107;-70
2021/09/04 01:23:39;;;;;;;8.23;7.32;;;15.80;99.90;;;;;;5079397;28;20070;-70
2021/09/04 01:26:08;;;;;;;9.02;7.57;;;15.70;99.90;;;;;;5078826;28;20416;-70
2021/09/04 01:28:35;;;;;;;11.77;7.43;;;15.70;99.90;;;;;;5079336;28;20432;-70
2021/09/04 01:31:02;;;;;;;8.23;6.55;;;15.60;99.90;;;;;;5079112;28;20568;-69
2021/09/04 01:33:28;;;;;;;8.02;7.28;;;15.60;99.90;;;;;;5077732;28;20153;-69
2021/09/04 01:35:53;;;;;;;9.90;8.25;;;15.40;99.90;;;;;;5078804;28;20061;-69
2021/09/04 01:38:20;;;;;;;10.23;7.82;;;15.50;99.90;;;;;;5078959;28;20037;-69
2021/09/04 01:40:45;;;;;;;15.02;8.98;;;15.40;99.90;;;;;;5078609;28;20035;-69
2021/09/04 01:43:11;;;;;;;17.77;9.85;;;15.50;99.90;;;;;;5079075;28;20063;-69
2021/09/04 01:45:37;;;;;;;11.77;7.70;;;15.50;99.90;;;;;;5078915;28;20031;-70
2021/09/04 01:48:03;;;;;;;10.00;8.57;;;14.60;99.90;;;;;;5078966;28;20069;-70
2021/09/04 01:50:30;;;;;;;11.35;9.88;;;15.30;99.90;;;;;;5078712;28;20083;-70
2021/09/04 01:52:56;;;;;;;15.57;12.02;;;15.30;99.90;;;;;;5078805;28;20025;-69
2021/09/04 01:55:22;;;;;;;11.30;10.10;;;15.40;99.90;;;;;;5078326;28;20086;-69
2021/09/04 01:57:48;;;;;;;11.02;8.57;;;15.50;99.90;;;;;;5078721;28;20060;-69
2021/09/04 02:00:15;;;;;;;11.43;9.68;;;15.80;99.90;;;;;;5078628;28;20025;-70
2021/09/04 02:02:42;;;;;;;10.45;9.25;;;15.90;99.90;;;;;;5078643;28;20089;-70
2021/09/04 02:05:09;;;;;;;9.50;8.52;;;16.00;99.90;;;;;;5078538;28;20020;-68
2021/09/04 02:07:35;;;;;;;9.23;8.32;;;15.60;99.90;;;;;;5078662;28;20024;-70
2021/09/04 02:10:02;;;;;;;11.95;9.52;;;16.00;99.90;;;;;;5078005;28;20174;-70
2021/09/04 02:12:27;;;;;;;11.05;9.95;;;15.90;99.90;;;;;;5078513;28;20392;-69
2021/09/04 02:14:53;;;;;;;10.27;8.15;;;16.10;99.90;;;;;;5078167;28;20033;-70
2021/09/04 02:17:19;;;;;;;9.65;8.68;;;16.00;99.90;;;;;;5078417;28;20021;-70
2021/09/04 02:19:46;;;;;;;9.02;7.65;;;16.00;99.90;;;;;;5078320;28;20380;-70
2021/09/04 02:22:12;;;;;;;10.93;7.97;;;16.30;99.90;;;;;;5078323;28;20028;-70
2021/09/04 02:24:39;;;;;;;7.13;6.43;;;16.10;99.90;;;;;;5077820;28;20098;-70
2021/09/04 02:27:05;;;;;;;11.80;8.43;;;16.20;99.90;;;;;;5078000;28;20074;-70
2021/09/04 02:29:31;;;;;;;8.80;8.00;;;16.40;99.90;;;;;;5076756;28;20487;-70
2021/09/04 02:31:57;;;;;;;9.40;8.43;;;16.20;99.90;;;;;;5077971;28;20023;-70
2021/09/04 02:34:23;;;;;;;7.97;7.18;;;16.10;99.90;;;;;;5077695;28;20458;-70
2021/09/04 02:36:48;;;;;;;10.57;8.25;;;16.60;99.90;;;;;;5077953;28;20362;-69
2021/09/04 02:39:14;;;;;;;10.27;8.63;;;16.40;99.90;;;;;;5077629;28;20107;-70
2021/09/04 02:41:40;;;;;;;11.20;9.05;;;16.40;99.90;;;;;;5077813;28;20028;-69
2021/09/04 02:44:06;;;;;;;11.77;10.48;;;16.30;99.90;;;;;;5077328;28;20024;-69
2021/09/04 02:46:32;;;;;;;11.65;10.43;;;16.50;99.90;;;;;;5078032;28;20036;-69
2021/09/04 02:48:58;;;;;;;18.52;13.55;;;16.50;99.90;;;;;;5077626;28;20028;-70
2021/09/04 02:51:24;;;;;;;15.77;13.35;;;16.60;99.90;;;;;;5077764;28;20099;-70
2021/09/04 02:53:50;;;;;;;11.98;9.90;;;16.40;99.90;;;;;;5076014;28;20044;-70
2021/09/04 02:56:15;;;;;;;12.95;11.30;;;16.70;99.90;;;;;;5077432;28;20028;-70
2021/09/04 02:58:41;;;;;;;16.58;13.43;;;16.50;99.90;;;;;;5077476;28;20024;-70
2021/09/04 03:01:07;;;;;;;20.67;14.20;;;16.60;99.90;;;;;;5076160;28;20024;-69
2021/09/04 03:03:33;;;;;;;11.93;10.73;;;16.50;99.90;;;;;;5077315;28;20024;-70
2021/09/04 03:06:01;;;;;;;12.25;10.68;;;16.50;99.90;;;;;;5077577;28;20017;-70
2021/09/04 03:08:28;;;;;;;12.50;10.27;;;16.90;99.90;;;;;;5077005;28;20025;-70
2021/09/04 03:10:54;;;;;;;11.13;9.95;;;16.60;99.90;;;;;;5077063;28;20033;-70
2021/09/04 03:13:19;;;;;;;12.40;10.52;;;16.70;99.90;;;;;;5076986;28;20031;-70
2021/09/04 03:15:45;;;;;;;10.68;9.68;;;16.50;99.90;;;;;;5077392;28;20024;-70
2021/09/04 03:18:12;;;;;;;10.52;9.45;;;16.80;99.90;;;;;;5076909;28;20027;-70
2021/09/04 03:20:38;;;;;;;16.23;10.30;;;16.40;99.90;;;;;;5077407;28;20433;-69
2021/09/04 03:23:04;;;;;;;12.32;10.02;;;16.50;99.90;;;;;;5077018;28;20030;-70
2021/09/04 03:25:30;;;;;;;15.82;9.77;;;16.50;99.90;;;;;;5076694;28;20020;-70
2021/09/04 03:27:55;;;;;;;10.23;9.02;;;16.50;99.90;;;;;;5076790;28;20503;-69
2021/09/04 03:30:21;;;;;;;9.20;8.38;;;16.50;99.90;;;;;;5077118;28;20048;-70
2021/09/04 03:32:47;;;;;;;13.50;10.43;;;16.60;99.90;;;;;;5076683;28;20029;-70
2021/09/04 03:35:13;;;;;;;18.35;13.23;;;16.50;99.90;;;;;;5076932;28;20090;-70
2021/09/04 03:37:39;;;;;;;15.50;13.50;;;16.10;99.90;;;;;;5076793;28;20028;-70
2021/09/04 03:40:05;;;;;;;17.48;11.60;;;16.40;99.90;;;;;;5076600;28;20111;-70
2021/09/04 03:42:31;;;;;;;15.60;12.15;;;16.10;99.90;;;;;;5076706;28;20028;-70
2021/09/04 03:44:57;;;;;;;21.05;15.88;;;16.30;99.90;;;;;;5077052;28;20024;-70
2021/09/04 03:47:23;;;;;;;20.08;14.85;;;16.00;99.90;;;;;;5076726;28;20028;-68
2021/09/04 03:49:49;;;;;;;19.27;13.93;;;16.00;99.90;;;;;;5076854;28;20064;-70
2021/09/04 03:52:15;;;;;;;16.38;11.77;;;15.90;99.90;;;;;;5076684;28;20028;-69
2021/09/04 03:54:40;;;;;;;15.00;11.13;;;16.20;99.90;;;;;;5076609;28;20032;-70
2021/09/04 03:57:06;;;;;;;18.60;11.25;;;15.90;99.90;;;;;;5075940;28;20025;-70
2021/09/04 03:59:32;;;;;;;15.77;11.52;;;15.90;99.90;;;;;;5076676;28;20012;-70
2021/09/04 04:01:58;;;;;;;17.23;12.85;;;15.90;99.90;;;;;;5076476;28;20527;-69
2021/09/04 04:04:24;;;;;;;22.20;14.05;;;16.00;99.90;;;;;;5076573;28;20031;-70
2021/09/04 04:06:50;;;;;;;14.00;12.48;;;15.60;99.90;;;;;;5076514;28;20020;-70
2021/09/04 04:09:15;;;;;;;14.73;12.45;;;15.80;99.90;;;;;;5076492;28;20088;-70
2021/09/04 04:11:41;;;;;;;16.15;13.07;;;15.50;99.90;;;;;;5076198;28;20099;-70
2021/09/04 04:14:07;;;;;;;23.65;18.55;;;15.80;99.90;;;;;;5076544;28;20056;-70
2021/09/04 04:16:33;;;;;;;20.40;16.33;;;15.80;99.90;;;;;;5076269;28;20016;-71
2021/09/04 04:18:59;;;;;;;16.15;13.25;;;15.70;99.90;;;;;;5076481;28;20476;-70
2021/09/04 04:21:25;;;;;;;19.17;14.82;;;15.90;99.90;;;;;;5076190;28;20027;-70
2021/09/04 04:23:50;;;;;;;13.68;12.27;;;15.80;99.90;;;;;;5076414;28;20099;-70
2021/09/04 04:26:16;;;;;;;13.50;11.70;;;15.90;99.90;;;;;;5075930;28;20092;-70
2021/09/04 04:28:42;;;;;;;16.00;13.23;;;15.90;99.90;;;;;;5076328;28;20450;-70
2021/09/04 04:31:08;;;;;;;13.55;12.10;;;16.00;99.90;;;;;;5076230;28;20063;-70
2021/09/04 04:33:34;;;;;;;13.02;11.50;;;16.10;99.90;;;;;;5076169;28;20115;-70
2021/09/04 04:36:00;;;;;;;15.00;13.25;;;15.90;99.90;;;;;;5076222;28;20044;-70
2021/09/04 04:38:26;;;;;;;15.63;13.43;;;15.70;99.90;;;;;;5076092;28;20482;-70
2021/09/04 04:40:51;;;;;;;16.60;11.75;;;16.10;99.90;;;;;;5075869;28;20028;-70
2021/09/04 04:43:17;;;;;;;13.68;11.70;;;16.00;99.90;;;;;;5076226;28;20024;-70
2021/09/04 04:45:43;;;;;;;17.45;12.38;;;15.90;99.90;;;;;;5076065;28;20481;-70
2021/09/04 04:48:09;;;;;;;15.30;11.90;;;16.10;99.90;;;;;;5076360;28;20025;-70
2021/09/04 04:50:35;;;;;;;17.00;12.90;;;16.00;99.90;;;;;;5075916;28;20070;-70
2021/09/04 04:53:01;;;;;;;15.63;12.85;;;16.20;99.90;;;;;;5076266;28;20882;-70
2021/09/04 04:55:27;;;;;;;15.55;12.95;;;16.10;99.90;;;;;;5075561;28;20035;-70
2021/09/04 04:57:53;;;;;;;16.90;13.57;;;16.30;99.90;;;;;;5076253;28;20035;-70
2021/09/04 05:00:19;;;;;;;16.13;13.88;;;16.20;99.90;;;;;;5075875;28;20112;-70
2021/09/04 05:02:45;;;;;;;13.90;10.95;;;16.20;99.90;;;;;;5076016;28;20020;-70
2021/09/04 05:05:11;;;;;;;12.70;10.10;;;16.30;99.90;;;;;;5075939;28;20501;-70
2021/09/04 05:07:37;;;;;;;13.40;11.07;;;16.40;99.90;;;;;;5077627;28;20071;-70
2021/09/04 05:10:03;;;;;;;11.07;10.07;;;16.30;99.90;;;;;;5079073;28;20041;-70
2021/09/04 05:12:29;;;;;;;16.55;12.63;;;16.40;99.90;;;;;;5079813;28;20016;-70
2021/09/04 05:14:55;;;;;;;13.93;12.35;;;16.40;99.90;;;;;;5079475;28;20039;-70
2021/09/04 05:17:21;;;;;;;14.50;11.32;;;16.30;99.90;;;;;;5079564;28;20080;-70
2021/09/04 05:19:47;;;;;;;14.00;11.77;;;16.30;99.90;;;;;;5079388;28;20540;-70
2021/09/04 05:22:13;;;;;;;16.98;13.82;;;16.20;99.90;;;;;;5079480;28;20024;-70
2021/09/04 05:24:39;;;;;;;15.05;11.88;;;16.40;99.90;;;;;;5078966;28;20024;-70
2021/09/04 05:27:05;;;;;;;11.05;9.93;;;16.40;99.90;;;;;;5079129;28;20033;-69
2021/09/04 05:29:30;;;;;;;11.45;10.35;;;16.20;99.90;;;;;;5078008;28;20059;-70
2021/09/04 05:31:56;;;;;;;13.02;11.63;;;15.90;99.90;;;;;;5079161;28;20393;-70
2021/09/04 05:34:22;;;;;;;15.48;12.30;;;16.40;99.90;;;;;;5078954;28;20044;-70
2021/09/04 05:36:48;;;;;;;18.17;13.18;;;16.30;99.90;;;;;;5079269;28;20070;-70
2021/09/04 05:39:14;;;;;;;19.38;15.82;;;16.10;99.90;;;;;;5078776;28;20032;-70
2021/09/04 05:41:40;;;;;;;16.92;13.05;;;16.00;99.90;;;;;;5079048;28;20067;-70
2021/09/04 05:44:06;;;;;;;13.05;11.75;;;16.20;99.90;;;;;;5079092;28;20025;-70
2021/09/04 05:46:32;;;;;;;17.08;12.40;;;16.20;99.90;;;;;;5079077;28;20024;-69
2021/09/04 05:48:58;;;;;;;15.23;12.32;;;16.20;99.90;;;;;;5078754;28;20028;-70
2021/09/04 05:51:24;;;;;;;11.27;10.07;;;15.90;99.90;;;;;;5078922;28;20038;-70
2021/09/04 05:53:50;;;;;;;12.57;11.10;;;16.10;99.90;;;;;;5078638;28;20037;-70
2021/09/04 05:56:15;;;;;;;13.88;12.50;;;16.30;99.90;;;;;;5078665;28;20024;-70
2021/09/04 05:58:41;;;;;;;12.77;10.73;;;16.20;99.90;;;;;;5077289;28;20029;-70
2021/09/04 06:01:07;;;;;;;11.57;9.95;;;16.00;99.90;;;;;;5078779;28;20400;-69
2021/09/04 06:03:33;;;;;;;13.02;11.55;;;16.00;99.90;;;;;;5078482;28;20029;-70
2021/09/04 06:05:59;;;;;;;12.32;9.77;;;16.20;99.90;;;;;;5078773;28;20031;-70
2021/09/04 06:08:25;;;;;;;11.25;10.25;;;16.30;99.90;;;;;;5078400;28;20388;-70
2021/09/04 06:10:52;;;;;;;12.65;11.32;;;16.20;99.90;;;;;;5078223;28;20031;-70
2021/09/04 06:13:18;;;;;;;18.10;13.77;;;16.50;99.90;;;;;;5078185;28;20024;-70
2021/09/04 06:15:44;;;;;;;19.33;16.25;;;16.50;99.90;;;;;;5078487;28;20017;-70
2021/09/04 06:18:11;;;;;;;15.85;13.60;;;16.60;99.90;;;;;;5078255;28;20029;-70
2021/09/04 06:20:37;;;;;;;13.38;10.73;;;16.60;99.90;;;;;;5077990;28;20388;-70
2021/09/04 06:23:03;;;;;;;11.13;10.10;;;16.60;99.90;;;;;;5078121;28;20035;-70
2021/09/04 06:25:29;;;;;;;11.75;10.52;;;16.50;99.90;;;;;;5077937;28;20023;-70
2021/09/04 06:27:55;;;;;;;18.65;11.05;;;16.50;99.90;;;;;;5078054;28;20051;-70
2021/09/04 06:30:21;;;;;;;13.13;11.68;;;16.60;99.90;;;;;;5078254;28;20025;-70
2021/09/04 06:32:47;;;;;;;14.95;12.20;;;16.90;99.90;;;;;;5077731;28;20035;-70
2021/09/04 06:35:12;;;;;;;11.60;10.38;;;16.70;99.90;;;;;;5077723;28;20398;-70
2021/09/04 06:37:38;;;;;;;16.25;11.05;;;16.60;99.90;;;;;;5077749;28;20397;-70
2021/09/04 06:40:05;;;;;;;10.93;9.82;;;16.60;99.90;;;;;;5077729;28;20020;-70
2021/09/04 06:42:31;;;;;;;12.40;11.15;;;16.70;99.90;;;;;;5077798;28;20533;-70
2021/09/04 06:44:57;;;;;;;11.43;10.23;;;16.40;99.90;;;;;;5077987;28;20028;-70
2021/09/04 06:47:23;;;;;;;10.88;9.30;;;17.00;99.90;;;;;;5077673;28;20032;-70
2021/09/04 06:49:49;;;;;;;9.63;8.63;;;16.70;99.90;;;;;;5077846;28;20031;-69
2021/09/04 06:52:15;;;;;;;11.00;9.90;;;16.90;99.90;;;;;;5077495;28;20021;-70
2021/09/04 06:54:41;;;;;;;11.10;9.98;;;16.80;99.90;;;;;;5077432;28;20105;-70
2021/09/04 06:57:07;;;;;;;10.38;9.15;;;17.00;99.90;;;;;;5077451;28;20024;-69
2021/09/04 06:59:32;;;;;;;11.15;10.00;;;17.40;99.90;;;;;;5077618;28;20070;-70
2021/09/04 07:01:58;;;;;;;12.52;10.00;;;17.00;99.90;;;;;;5077247;28;20504;-70
2021/09/04 07:04:26;;;;;;;14.82;13.27;;;;;;;;;;5077670;28;20013;-70
2021/09/04 07:06:52;;;;;;;19.00;14.27;;;;;;;;;;5077323;28;20025;-70
2021/09/04 07:09:18;;;;;;;17.45;14.15;;;;;;;;;;5077173;28;20543;-70
2021/09/04 07:11:44;;;;;;;15.73;13.18;;;17.50;99.90;;;;;;5077166;28;20396;-70
2021/09/04 07:14:09;;;;;;;17.27;14.52;;;17.70;99.90;;;;;;5077614;28;20032;-70
2021/09/04 07:16:35;;;;;;;14.90;12.35;;;17.80;99.90;;;;;;5077399;28;20021;-70
2021/09/04 07:19:02;;;;;;;16.05;12.80;;;18.10;99.90;;;;;;5077304;28;20031;-70
2021/09/04 07:21:27;;;;;;;15.57;12.20;;;18.20;99.90;;;;;;5077201;28;20048;-70
2021/09/04 07:23:53;;;;;;;23.30;16.73;;;18.10;99.90;;;;;;5077044;28;20070;-70
2021/09/04 07:26:19;;;;;;;19.10;15.00;;;18.10;99.90;;;;;;5076585;28;20020;-70
2021/09/04 07:28:45;;;;;;;20.92;16.00;;;18.10;99.90;;;;;;5077060;28;20040;-70
2021/09/04 07:31:11;;;;;;;20.55;16.65;;;18.10;99.90;;;;;;5075955;28;20028;-70
2021/09/04 07:33:36;;;;;;;13.43;12.10;;;18.20;99.90;;;;;;5076924;28;20024;-70
2021/09/04 07:36:08;;;;;;;18.02;15.65;;;18.30;99.90;;;;;;5076830;28;20052;-70
2021/09/04 07:38:34;;;;;;;13.98;12.48;;;18.50;99.90;;;;;;5076589;28;20025;-70
2021/09/04 07:41:00;;;;;;;12.80;11.45;;;18.50;99.90;;;;;;5076510;28;20307;-70
2021/09/04 07:43:26;;;;;;;13.43;12.00;;;18.80;99.90;;;;;;5076843;28;20025;-70
2021/09/04 07:45:52;;;;;;;15.98;13.30;;;18.70;99.90;;;;;;5076598;28;20029;-62
2021/09/04 07:48:18;;;;;;;14.35;12.82;;;19.10;99.90;;;;;;5076981;28;20024;-62
2021/09/04 07:50:44;;;;;;;14.52;11.95;;;19.50;99.90;;;;;;5076627;28;20032;-62
2021/09/04 07:53:10;;;;;;;15.55;13.85;;;20.00;99.90;;;;;;5076645;28;20031;-62
2021/09/04 07:55:36;;;;;;;19.67;13.43;;;;;;;;;;5070720;28;20608;-63
2021/09/04 07:58:02;;;;;;;17.08;12.75;;;;;;;;;;5074703;28;20033;-63
2021/09/04 08:00:28;;;;;;;15.95;12.90;;;21.40;99.90;;;;;;5076185;28;20400;-64
2021/09/04 08:02:54;;;;;;;15.20;11.48;;;21.80;99.90;;;;;;5081721;28;20055;-64
2021/09/04 08:05:20;;;;;;;17.38;13.25;;;21.80;99.90;;;;;;5096576;28;20023;-62
2021/09/04 08:07:46;;;;;;;15.82;14.00;;;;;;;;;;5096799;28;20034;-61
2021/09/04 08:10:12;;;;;;;17.95;14.02;;;22.50;99.90;;;;;;5095790;28;20111;-61
2021/09/04 08:12:38;;;;;;;20.10;14.60;;;22.60;99.90;;;;;;5096573;28;20047;-61
2021/09/04 08:15:05;;;;;;;17.95;14.50;;;22.60;99.90;;;;;;5096429;28;20120;-61
2021/09/04 08:17:31;;;;;;;14.93;11.50;;;22.80;99.90;;;;;;5095489;28;20032;-61
2021/09/04 08:19:56;;;;;;;12.73;11.43;;;23.10;99.90;;;;;;5096441;28;20031;-61
2021/09/04 08:22:22;;;;;;;15.77;11.38;;;23.20;99.90;;;;;;5096771;28;20111;-61
2021/09/04 08:24:48;;;;;;;16.23;13.55;;;23.10;99.90;;;;;;5096155;28;20027;-61
2021/09/04 08:27:14;;;;;;;13.07;10.00;;;22.80;99.90;;;;;;5074077;28;20454;-61
2021/09/04 08:29:40;;;;;;;16.85;13.10;;;22.80;99.90;;;;;;5074297;28;20024;-58
2021/09/04 08:32:06;;;;;;;17.40;12.38;;;23.00;99.90;;;;;;5076538;28;20055;-71
2021/09/04 08:34:32;;;;;;;10.85;9.75;;;23.00;99.90;;;;;;5075954;28;20059;-71
2021/09/04 08:36:58;;;;;;;11.82;10.38;;;23.10;99.90;;;;;;5076229;28;20032;-71
2021/09/04 08:39:24;;;;;;;12.52;10.27;;;23.60;99.90;;;;;;5075858;28;20079;-71
2021/09/04 08:41:49;;;;;;;19.85;13.57;;;24.80;99.90;;;;;;5075367;28;20503;-71
2021/09/04 08:44:15;;;;;;;14.77;10.70;;;25.50;99.90;;;;;;5080004;28;20021;-71
2021/09/04 08:46:41;;;;;;;14.93;11.18;;;25.50;99.90;;;;;;5080145;28;20020;-71
2021/09/04 08:49:08;;;;;;;14.77;11.63;;;25.70;99.90;;;;;;5058770;28;20115;-71
2021/09/04 08:51:34;;;;;;;11.43;9.50;;;25.90;99.90;;;;;;5070714;28;20048;-71
2021/09/04 08:54:02;;;;;;;9.48;7.47;;;25.90;99.90;;;;;;5079767;28;20033;-71
2021/09/04 08:56:28;;;;;;;12.32;10.82;;;26.50;99.90;;;;;;5091259;28;20027;-71
2021/09/04 08:58:54;;;;;;;11.65;10.43;;;26.80;99.90;;;;;;5099977;28;20111;-71
2021/09/04 09:01:23;;;;;;;11.93;10.05;;;26.80;99.90;;;;;;5100154;28;20023;-71
2021/09/04 09:03:50;;;;;;;11.60;9.13;;;26.90;99.90;;;;;;5099993;28;20088;-71
2021/09/04 09:06:26;;;;;;;14.10;12.20;;;27.00;99.90;;;;;;5100175;28;20020;-71
2021/09/04 09:08:52;;;;;;;14.13;10.63;;;27.10;99.90;;;;;;5099799;28;20103;-71
2021/09/04 09:11:18;;;;;;;10.80;8.20;;;27.40;99.90;;;;;;5099695;28;20024;-72
2021/09/04 09:13:51;;;;;;;8.43;7.50;;;27.50;99.90;;;;;;5098597;28;20024;-71
2021/09/04 09:16:18;;;;;;;12.63;10.55;;;28.10;99.90;;;;;;5099823;28;20059;-71
2021/09/04 09:18:58;;;;;;;13.18;9.48;;;28.40;99.90;;;;;;5099842;28;20055;-72
2021/09/04 09:21:31;;;;;;;13.07;9.07;;;28.50;99.90;;;;;;5099555;28;20024;-71
2021/09/04 09:24:15;;;;;;;8.50;7.57;;;28.70;99.90;;;;;;5099678;28;20051;-72
2021/09/04 09:26:53;;;;;;;12.93;10.50;;;29.10;99.90;;;;;;5086085;28;20013;-71
2021/09/04 09:29:33;;;;;;;11.90;9.68;;;29.00;99.70;;;;;;5074251;28;20090;-72
2021/09/04 09:32:11;;;;;;;7.90;7.10;;;29.10;99.90;;;;;;5079024;28;20028;-72
2021/09/04 09:34:38;;;;;;;9.95;7.00;;;29.20;99.20;;;;;;5077782;28;20116;-72
2021/09/04 09:37:06;;;;;;;10.07;7.43;;;29.20;99.00;;;;;;5079199;28;20078;-72
2021/09/04 09:39:38;;;;;;;15.60;10.80;;;30.00;98.50;;;;;;5078634;28;20059;-71
2021/09/04 09:42:06;;;;;;;11.45;9.27;;;30.10;97.00;;;;;;5079196;28;20425;-72
2021/09/04 09:44:34;;;;;;;14.98;8.93;;;29.80;97.80;;;;;;5079170;28;20024;-58
2021/09/04 09:47:05;;;;;;;6.25;5.38;;;30.20;97.80;;;;;;5078983;28;20085;-59
2021/09/04 09:49:43;;;;;;;669.15;241.48;;;30.50;97.30;;;;;;5079127;28;20020;-59
2021/09/04 09:52:12;;;;;;;151.63;37.78;;;31.00;96.70;;;;;;5078873;28;20138;-59
2021/09/04 09:54:38;;;;;;;16.02;10.27;;;31.10;95.10;;;;;;5077748;28;20020;-59
2021/09/04 09:57:07;;;;;;;15.55;9.27;;;30.50;95.10;;;;;;5078599;28;20556;-59
2021/09/04 09:59:33;;;;;;;9.93;8.57;;;30.20;94.70;;;;;;5078829;28;20373;-59
2021/09/04 10:02:11;;;;;;;9.80;7.75;;;30.10;95.40;;;;;;5078427;28;20024;-58
2021/09/04 10:04:39;;;;;;;11.13;8.10;;;30.60;95.60;;;;;;5078874;28;20035;-59
2021/09/04 10:07:07;;;;;;;7.80;7.00;;;31.10;94.50;;;;;;5078549;28;20020;-59
2021/09/04 10:09:35;;;;;;;12.32;6.00;;;31.50;94.00;;;;;;5078165;28;20021;-59
2021/09/04 10:12:03;;;;;;;6.63;5.63;;;31.80;93.70;;;;;;5078338;28;20480;-59
2021/09/04 10:14:29;;;;;;;9.32;7.78;;;32.40;91.40;;;;;;5078692;28;20077;-59
2021/09/04 10:17:02;;;;;;;6.15;4.95;;;32.40;92.60;;;;;;5078266;28;20021;-59
2021/09/04 10:19:30;;;;;;;7.18;5.22;;;32.70;92.40;;;;;;5078618;28;20035;-59
2021/09/04 10:22:04;;;;;;;7.20;5.38;;;33.40;91.90;;;;;;5072389;28;20025;-59
2021/09/04 10:24:42;;;;;;;6.00;4.20;;;33.70;91.40;;;;;;5064132;28;20074;-59
2021/09/04 10:27:09;;;;;;;8.63;7.25;;;33.90;90.60;;;;;;5076202;28;20165;-59
2021/09/04 10:29:46;;;;;;;9.38;7.68;;;33.80;90.00;;;;;;5095125;28;20499;-59
2021/09/04 10:32:16;;;;;;;10.50;5.85;;;33.70;87.60;;;;;;5085875;28;20082;-59
2021/09/04 10:34:44;;;;;;;8.30;6.80;;;33.50;90.10;;;;;;5077541;28;20053;-59
2021/09/04 10:37:13;;;;;;;9.00;5.43;;;33.80;90.40;;;;;;5077460;28;20033;-59
2021/09/04 10:39:59;;;;;;;8.02;6.57;;;34.30;90.40;;;;;;5077783;28;20012;-59
2021/09/04 10:42:36;;;;;;;4.18;3.78;;;34.20;85.20;;;;;;5094320;28;20075;-59
2021/09/04 10:45:16;;;;;;;5.70;4.10;;;34.10;86.80;;;;;;5097690;28;20526;-59
2021/09/04 10:47:49;;;;;;;6.22;5.60;;;34.70;83.30;;;;;;5098163;28;20028;-59
2021/09/04 10:50:26;;;;;;;6.32;5.13;;;34.60;83.80;;;;;;5097990;28;20031;-59
2021/09/04 10:52:53;;;;;;;9.07;7.15;;;34.40;85.00;;;;;;5097612;28;20465;-58
2021/09/04 10:55:42;;;;;;;5.28;4.75;;;34.10;84.20;;;;;;5097455;28;20107;-58
2021/09/04 10:58:15;;;;;;;4.90;4.40;;;34.30;84.90;;;;;;5076197;28;20051;-59
2021/09/04 11:00:42;;;;;;;5.75;3.88;;;34.70;86.70;;;;;;5077101;28;20058;-59
2021/09/04 11:03:10;;;;;;;8.30;5.47;;;35.30;86.40;;;;;;5077417;28;20055;-58
2021/09/04 11:05:45;;;;;;;5.50;4.75;;;35.70;83.80;;;;;;5077065;28;20453;-59
2021/09/04 11:08:20;;;;;;;9.23;4.65;;;35.80;82.40;;;;;;5074481;28;20017;-58
2021/09/04 11:10:49;;;;;;;5.88;4.97;;;35.90;81.30;;;;;;5075954;28;20476;-58
2021/09/04 11:13:18;;;;;;;5.70;4.93;;;35.60;78.20;;;;;;5076263;28;20028;-58
2021/09/04 11:15:48;;;;;;;6.00;5.40;;;35.30;79.70;;;;;;5077215;28;20029;-59
2021/09/04 11:18:18;;;;;;;7.65;4.88;;;35.20;79.00;;;;;;5095139;28;20016;-59
2021/09/04 11:20:49;;;;;;;6.20;5.47;;;35.20;79.20;;;;;;5097058;28;20016;-59
2021/09/04 11:23:29;;;;;;;6.68;5.93;;;35.10;78.60;;;;;;5097000;28;20012;-58
2021/09/04 11:25:55;;;;;;;10.50;4.70;;;35.30;77.10;;;;;;5096405;28;20105;-59
2021/09/04 11:28:32;;;;;;;7.07;5.32;;;35.50;78.30;;;;;;5064047;28;20105;-58
2021/09/04 11:30:58;;;;;;;5.15;4.65;;;35.10;77.00;;;;;;5077065;28;20112;-59
2021/09/04 11:33:24;;;;;;;6.97;5.43;;;35.20;78.90;;;;;;5076666;28;20074;-59
2021/09/04 11:35:51;;;;;;;7.82;5.30;;;35.70;79.60;;;;;;5076390;28;20052;-59
2021/09/04 11:38:17;;;;;;;4.88;4.05;;;35.90;77.50;;;;;;5074169;28;20028;-59
2021/09/04 11:40:44;;;;;;;8.63;6.15;;;36.10;78.10;;;;;;5076365;28;20031;-58
2021/09/04 11:43:14;;;;;;;10.93;6.63;;;35.90;77.20;;;;;;5076360;28;20023;-59
2021/09/04 11:45:40;;;;;;;10.65;5.95;;;35.30;76.10;;;;;;5071258;28;20024;-58
2021/09/04 11:48:08;;;;;;;5.15;3.97;;;34.30;77.80;;;;;;5077019;28;20409;-58
2021/09/04 11:50:34;;;;;;;9.55;3.22;;;34.60;81.20;;;;;;5076416;28;20100;-58
2021/09/04 11:53:07;;;;;;;4.82;3.25;;;35.10;80.30;;;;;;5076694;28;20024;-59
2021/09/04 11:55:33;;;;;;;6.05;4.70;;;34.80;79.60;;;;;;5076130;28;20174;-59
2021/09/04 11:58:01;;;;;;;5.70;3.88;;;34.20;80.70;;;;;;5076151;28;20032;-58
2021/09/04 12:00:36;;;;;;;5.32;4.57;;;33.80;82.40;;;;;;5076455;28;20032;-58
2021/09/04 12:03:05;;;;;;;;;;;34.20;81.70;;;;;;5076789;28;20545;-58
2021/09/04 12:05:33;;;;;;;4.13;3.42;;;35.00;80.50;;;;;;5076108;28;19904;-59
2021/09/04 12:08:11;;;;;;;4.47;3.88;;;36.00;78.70;;;;;;5075400;28;20381;-58
2021/09/04 12:10:39;;;;;;;7.47;5.32;;;35.60;75.80;;;;;;5076521;28;20086;-58
2021/09/04 12:13:17;;;;;;;6.15;3.28;;;33.30;77.20;;;;;;5076495;28;20055;-58
2021/09/04 12:15:44;;;;;;;3.63;3.30;;;33.30;77.80;;;;;;5076603;28;20393;-58
2021/09/04 12:18:10;;;;;;;5.07;2.83;;;;;;;;;;5079038;28;20087;-58
2021/09/04 12:20:44;;;;;;;5.43;4.93;;;31.10;83.50;;;;;;5080702;28;20031;-58
2021/09/04 12:23:23;;;;;;;5.77;5.07;;;31.00;84.30;;;;;;5080293;28;20025;-58
2021/09/04 12:26:02;;;;;;;6.78;4.47;;;31.40;85.20;;;;;;5080253;28;20262;-58
2021/09/04 12:28:28;;;;;;;4.75;4.15;;;32.10;84.90;;;;;;5068702;28;20388;-58
2021/09/04 12:31:12;;;;;;;5.28;4.55;;;32.90;84.30;;;;;;5080377;28;20035;-58
2021/09/04 12:33:50;;;;;;;5.00;4.15;;;33.70;81.00;;;;;;5080135;28;20024;-58
2021/09/04 12:36:18;;;;;;;6.63;4.05;;;34.10;79.40;;;;;;5078819;28;20127;-58
2021/09/04 12:38:45;;;;;;;3.90;3.05;;;34.90;79.80;;;;;;5080188;28;20035;-58